Airfield :







YOU CAN JOIN US ON...

 
LOGIN :

Register | Disclaimer

   EN    FR    IT 

 









Legend :    VFR   Marginal VFR   IFR   Intensive IFR   Very Intensive IFR
Visi :
Ceiling :
>= 8 km
>= 3000ft
5 to 8 km
1000 to 3000 ft
1500m to 5 km
500 to 1000 ft
800 to 1500m
200 to 500 ft
< 800m
< 200 ft
Symbols :   Thunderstorms  Fog  Heavy snow  Heavy precipitations  Wind > 20 kt







- Airport Elevation : 348 ft


KFIT - Fitchburg Municipal

CURRENT METAR :
  • 172052Z AUTO 34005KT 10SM SCT075 21/08 A3013 RMK AO2 SLP204 T02110078 56004

EXPIRED METARs :
  • 171952Z AUTO 06006KT 10SM BKN065 20/08 A3013 RMK AO2 SLP204 T02000078
  • 171852Z AUTO 05007KT 010V070 10SM FEW050 BKN070 21/07 A3013 RMK AO2 SLP204 T02060067
  • 171752Z AUTO 07007KT 10SM BKN065 21/07 A3014 RMK AO2 SLP207 T02060072 10217 20139 57003

TAF N/A
No reported NOTAMs for that airfield.



MET'MAP, your aeronautical weather chart ! - Copyright ORBIFLY December 2007 - Disclaimer

ORBIFLY MET'MAP TEAM :

Programming & Development : Alexandra Zaïnal
Concept & Development : Baudouin d'Aumeries
Co-Development & Prog : Marc-Olivier Méhu
Technical & hardware support : Manuel Goepfert

Contact : metmap@orbifly.com




SOURCES & CREDITS :

   NOAA